Time;durP1;ratioP1;P1;durP2;ratioP2;P2;SDS_P1;SDS_P2;PMS_P1;PMS_P2;Temp;Humidity;BMP_temperature;BMP_pressure;BME280_temperature;BME280_humidity;BME280_pressure;Samples;Min_cycle;Max_cycle;Signal;HPM_P1;HPM_P2
2020/12/14 00:02:25;;;;;;;18.77;10.07;;;;;;;;;;4815695;29;20105;-68
2020/12/14 00:04:52;;;;;;;;;;;;;;;;;;4819739;29;20050;-68
2020/12/14 00:07:19;;;;;;;14.60;8.75;;;;;;;;;;4821673;29;20023;-68
2020/12/14 00:09:46;;;;;;;18.67;9.80;;;;;;;;;;4818560;29;20084;-67
2020/12/14 00:12:12;;;;;;;16.80;9.65;;;;;;;;;;4817863;29;20111;-68
2020/12/14 00:14:39;;;;;;;15.32;8.75;;;;;;;;;;4817445;29;20393;-68
2020/12/14 00:17:05;;;;;;;16.15;9.43;;;;;;;;;;4817038;29;20058;-68
2020/12/14 00:19:31;;;;;;;18.73;9.85;;;;;;;;;;4817836;29;20499;-67
2020/12/14 00:21:58;;;;;;;17.45;10.00;;;;;;;;;;4817338;29;20094;-68
2020/12/14 00:24:24;;;;;;;15.55;9.07;;;;;;;;;;4817644;29;20058;-67
2020/12/14 00:26:51;;;;;;;16.63;9.25;;;;;;;;;;4818509;29;20073;-67
2020/12/14 00:29:20;;;;;;;15.70;9.10;;;;;;;;;;4820345;29;20137;-68
2020/12/14 00:31:53;;;;;;;16.55;9.15;;;;;;;;;;4822841;29;20126;-68
2020/12/14 00:34:21;;;;;;;16.05;8.68;;;;;;;;;;4820934;29;20042;-67
2020/12/14 00:37:02;;;;;;;16.08;8.90;;;;;;;;;;4820253;29;20050;-67
2020/12/14 00:39:29;;;;;;;13.93;8.93;;;;;;;;;;4821170;29;20117;-67
2020/12/14 00:41:55;;;;;;;18.88;9.52;;;;;;;;;;4822916;29;20066;-67
2020/12/14 00:44:21;;;;;;;17.73;9.77;;;;;;;;;;4820411;29;20057;-68
2020/12/14 00:46:47;;;;;;;15.38;9.13;;;;;;;;;;4822480;29;20133;-67
2020/12/14 00:49:13;;;;;;;17.85;8.60;;;;;;;;;;4819127;29;20054;-67
2020/12/14 00:51:39;;;;;;;16.05;8.75;;;;;;;;;;4820322;29;20046;-67
2020/12/14 00:54:07;;;;;;;14.38;9.15;;;;;;;;;;4821544;29;20049;-67
2020/12/14 00:56:33;;;;;;;;;;;;;;;;;;4821013;29;20054;-67
2020/12/14 00:58:59;;;;;;;16.20;8.93;;;;;;;;;;4821846;29;19925;-67
2020/12/14 01:01:26;;;;;;;13.02;8.60;;;;;;;;;;4820546;29;20082;-67
2020/12/14 01:03:52;;;;;;;12.75;8.63;;;;;;;;;;4822312;29;20039;-67
2020/12/14 01:06:18;;;;;;;14.73;8.90;;;;;;;;;;4821704;29;20042;-68
2020/12/14 01:08:45;;;;;;;15.35;9.20;;;;;;;;;;4819615;29;20050;-67
2020/12/14 01:11:11;;;;;;;17.10;9.73;;;;;;;;;;4822687;29;20042;-68
2020/12/14 01:13:38;;;;;;;15.60;9.30;;;;;;;;;;4820901;29;20042;-68
2020/12/14 01:16:08;;;;;;;16.65;9.13;;;;;;;;;;4821329;29;20399;-67
2020/12/14 01:18:37;;;;;;;16.95;10.30;;;;;;;;;;4823092;29;20092;-67
2020/12/14 01:21:06;;;;;;;18.90;9.63;;;;;;;;;;4819670;29;20235;-68
2020/12/14 01:23:33;;;;;;;19.35;9.88;;;;;;;;;;4823087;29;20509;-68
2020/12/14 01:26:00;;;;;;;16.88;9.23;;;;;;;;;;4820985;29;20440;-67
2020/12/14 01:28:26;;;;;;;17.80;9.00;;;;;;;;;;4821255;29;20065;-67
2020/12/14 01:30:52;;;;;;;14.60;8.90;;;;;;;;;;4820175;29;20098;-68
2020/12/14 01:33:20;;;;;;;16.20;8.60;;;;;;;;;;4818120;29;20065;-67
2020/12/14 01:35:46;;;;;;;17.05;8.73;;;;;;;;;;4820920;29;20091;-67
2020/12/14 01:38:13;;;;;;;14.50;8.20;;;;;;;;;;4817620;29;20062;-68
2020/12/14 01:40:39;;;;;;;19.58;9.05;;;;;;;;;;4820310;29;20115;-67
2020/12/14 01:43:05;;;;;;;13.68;8.05;;;;;;;;;;4819824;29;20532;-67
2020/12/14 01:45:31;;;;;;;18.20;8.63;;;;;;;;;;4819503;29;20580;-67
2020/12/14 01:48:00;;;;;;;22.05;10.13;;;;;;;;;;4820583;29;20049;-68
2020/12/14 01:50:27;;;;;;;15.93;8.80;;;;;;;;;;4819273;29;20046;-68
2020/12/14 01:52:56;;;;;;;16.65;8.82;;;;;;;;;;4820301;29;20050;-67
2020/12/14 01:55:23;;;;;;;16.10;8.95;;;;;;;;;;4818786;29;20453;-67
2020/12/14 01:57:50;;;;;;;15.82;7.72;;;;;;;;;;4820081;29;20858;-68
2020/12/14 02:00:16;;;;;;;16.35;8.40;;;;;;;;;;4819105;29;20043;-67
2020/12/14 02:02:42;;;;;;;19.52;8.35;;;;;;;;;;4820526;29;20457;-67
2020/12/14 02:05:08;;;;;;;16.88;8.50;;;;;;;;;;4819787;29;20057;-67
2020/12/14 02:07:35;;;;;;;13.88;7.55;;;;;;;;;;4819097;29;20074;-67
2020/12/14 02:10:01;;;;;;;12.57;7.00;;;;;;;;;;4820890;29;20083;-67
2020/12/14 02:12:27;;;;;;;13.65;7.72;;;;;;;;;;4819713;29;20066;-67
2020/12/14 02:14:55;;;;;;;12.52;7.80;;;;;;;;;;4818282;29;20130;-67
2020/12/14 02:17:21;;;;;;;13.23;6.85;;;;;;;;;;4820598;29;20315;-67
2020/12/14 02:19:48;;;;;;;12.30;7.30;;;;;;;;;;4820363;29;20046;-67
2020/12/14 02:22:18;;;;;;;12.13;7.55;;;;;;;;;;4819669;29;20085;-68
2020/12/14 02:24:51;;;;;;;14.57;7.30;;;;;;;;;;4819183;29;20091;-67
2020/12/14 02:27:18;;;;;;;12.48;6.82;;;;;;;;;;4818489;29;20141;-68
2020/12/14 02:29:47;;;;;;;12.18;6.80;;;;;;;;;;4818653;29;20422;-67
2020/12/14 02:32:17;;;;;;;10.77;6.80;;;;;;;;;;4819667;29;20047;-68
2020/12/14 02:34:44;;;;;;;12.32;6.88;;;;;;;;;;4817810;29;20053;-68
2020/12/14 02:37:11;;;;;;;14.73;6.82;;;;;;;;;;4818356;29;20039;-67
2020/12/14 02:39:37;;;;;;;12.00;6.15;;;;;;;;;;4818941;29;20223;-68
2020/12/14 02:42:11;;;;;;;12.23;7.10;;;;;;;;;;4819932;29;20035;-67
2020/12/14 02:44:37;;;;;;;12.93;6.80;;;;;;;;;;4820088;29;20727;-67
2020/12/14 02:47:04;;;;;;;14.63;6.53;;;;;;;;;;4820195;29;20057;-68
2020/12/14 02:49:31;;;;;;;12.65;7.45;;;;;;;;;;4818189;29;20061;-67
2020/12/14 02:51:57;;;;;;;12.48;7.20;;;;;;;;;;4819904;29;20407;-68
2020/12/14 02:54:23;;;;;;;13.68;6.68;;;;;;;;;;4821050;29;20114;-68
2020/12/14 02:56:49;;;;;;;10.23;6.25;;;;;;;;;;4819129;29;20065;-67
2020/12/14 02:59:16;;;;;;;10.02;5.82;;;;;;;;;;4818773;29;20119;-68
2020/12/14 03:01:42;;;;;;;11.20;6.20;;;;;;;;;;4818772;29;20689;-68
2020/12/14 03:04:09;;;;;;;10.93;6.57;;;;;;;;;;4819265;29;20050;-68
2020/12/14 03:06:35;;;;;;;10.88;6.15;;;;;;;;;;4819846;29;20058;-68
2020/12/14 03:09:03;;;;;;;8.87;6.27;;;;;;;;;;4818989;29;20053;-68
2020/12/14 03:11:29;;;;;;;10.63;5.60;;;;;;;;;;4818872;29;20360;-67
2020/12/14 03:13:55;;;;;;;7.82;5.10;;;;;;;;;;4817915;29;20042;-68
2020/12/14 03:16:22;;;;;;;8.38;5.53;;;;;;;;;;4819570;29;20050;-68
2020/12/14 03:18:49;;;;;;;16.27;5.53;;;;;;;;;;4820201;29;20053;-68
2020/12/14 03:21:15;;;;;;;8.77;5.15;;;;;;;;;;4817621;29;20058;-68
2020/12/14 03:23:41;;;;;;;9.98;5.65;;;;;;;;;;4818050;29;20120;-68
2020/12/14 03:26:08;;;;;;;9.23;5.70;;;;;;;;;;4818561;29;20035;-68
2020/12/14 03:28:34;;;;;;;9.63;6.05;;;;;;;;;;4818697;29;20537;-68
2020/12/14 03:31:03;;;;;;;8.68;5.82;;;;;;;;;;4819740;29;20046;-67
2020/12/14 03:33:29;;;;;;;9.00;5.40;;;;;;;;;;4818798;29;20102;-68
2020/12/14 03:35:58;;;;;;;9.85;6.40;;;;;;;;;;4819433;29;20050;-67
2020/12/14 03:38:24;;;;;;;8.50;4.45;;;;;;;;;;4815070;29;20053;-68
2020/12/14 03:40:50;;;;;;;12.05;5.20;;;;;;;;;;4819264;29;20065;-68
2020/12/14 03:43:17;;;;;;;8.32;5.65;;;;;;;;;;4821297;29;20050;-68
2020/12/14 03:45:43;;;;;;;7.18;4.80;;;;;;;;;;4818915;29;20087;-67
2020/12/14 03:48:09;;;;;;;8.48;5.35;;;;;;;;;;4818498;29;20038;-68
2020/12/14 03:50:42;;;;;;;6.70;4.18;;;;;;;;;;4818622;29;20051;-68
2020/12/14 03:53:08;;;;;;;7.32;4.93;;;;;;;;;;4818944;29;20495;-68
2020/12/14 03:55:35;;;;;;;7.20;4.45;;;;;;;;;;4819802;29;20519;-68
2020/12/14 03:58:01;;;;;;;7.82;4.35;;;;;;;;;;4817862;29;20145;-68
2020/12/14 04:00:27;;;;;;;8.77;5.18;;;;;;;;;;4814914;29;20046;-68
2020/12/14 04:02:53;;;;;;;6.60;4.32;;;;;;;;;;4819711;29;20042;-67
2020/12/14 04:05:20;;;;;;;7.65;4.78;;;;;;;;;;4823203;29;20050;-67
2020/12/14 04:07:46;;;;;;;7.38;4.53;;;;;;;;;;4824379;29;20453;-68
2020/12/14 04:10:12;;;;;;;7.10;4.00;;;;;;;;;;4823492;29;20507;-68
2020/12/14 04:12:38;;;;;;;8.02;4.38;;;;;;;;;;4823524;29;20053;-67
2020/12/14 04:15:04;;;;;;;7.53;5.05;;;;;;;;;;4823383;29;20057;-67
2020/12/14 04:17:31;;;;;;;8.27;5.00;;;;;;;;;;4823541;29;20126;-68
2020/12/14 04:19:58;;;;;;;7.80;4.32;;;;;;;;;;4824059;29;20050;-67
2020/12/14 04:22:24;;;;;;;5.95;4.00;;;;;;;;;;4823967;29;20050;-68
2020/12/14 04:24:50;;;;;;;8.63;5.05;;;;;;;;;;4824376;29;20057;-67
2020/12/14 04:27:16;;;;;;;9.45;5.32;;;;;;;;;;4823520;29;20042;-67
2020/12/14 04:29:42;;;;;;;9.57;4.50;;;;;;;;;;4822017;29;20038;-68
2020/12/14 04:32:09;;;;;;;9.18;5.38;;;;;;;;;;4822521;29;20050;-67
2020/12/14 04:34:35;;;;;;;8.65;4.80;;;;;;;;;;4823360;29;20582;-67
2020/12/14 04:37:01;;;;;;;7.45;4.75;;;;;;;;;;4827464;29;20061;-67
2020/12/14 04:39:28;;;;;;;8.02;4.97;;;;;;;;;;4821538;29;20046;-68
2020/12/14 04:41:56;;;;;;;7.85;4.57;;;;;;;;;;4823708;29;20056;-67
2020/12/14 04:44:22;;;;;;;7.40;4.43;;;;;;;;;;4823951;29;20053;-68
2020/12/14 04:46:49;;;;;;;9.00;4.88;;;;;;;;;;4819891;29;20495;-67
2020/12/14 04:49:16;;;;;;;8.75;5.10;;;;;;;;;;4820165;29;20116;-68
2020/12/14 04:51:43;;;;;;;8.75;5.63;;;;;;;;;;4823266;29;20129;-68
2020/12/14 04:54:09;;;;;;;9.13;5.43;;;;;;;;;;4823882;29;20070;-68
2020/12/14 04:56:39;;;;;;;8.25;5.03;;;;;;;;;;4822943;29;20081;-67
2020/12/14 04:59:06;;;;;;;7.78;5.30;;;;;;;;;;4822450;29;20059;-67
2020/12/14 05:01:32;;;;;;;6.93;4.13;;;;;;;;;;4823277;29;20366;-67
2020/12/14 05:03:59;;;;;;;9.48;5.47;;;;;;;;;;4820700;29;20050;-68
2020/12/14 05:06:25;;;;;;;6.07;3.88;;;;;;;;;;4823648;29;20050;-67
2020/12/14 05:08:51;;;;;;;8.65;4.93;;;;;;;;;;4820176;29;20054;-68
2020/12/14 05:11:31;;;;;;;7.15;5.10;;;;;;;;;;4819339;29;20091;-68
2020/12/14 05:14:15;;;;;;;7.32;4.78;;;;;;;;;;4820089;29;20047;-68
2020/12/14 05:16:41;;;;;;;11.32;6.20;;;;;;;;;;4819678;29;22530;-67
2020/12/14 05:19:17;;;;;;;7.75;4.80;;;;;;;;;;4824674;29;20503;-67
2020/12/14 05:21:50;;;;;;;12.25;6.18;;;;;;;;;;4818744;29;20091;-67
2020/12/14 05:24:20;;;;;;;9.40;5.75;;;;;;;;;;4822755;29;20081;-67
2020/12/14 05:26:47;;;;;;;11.32;6.50;;;;;;;;;;4819779;29;20058;-67
2020/12/14 05:29:14;;;;;;;;;;;;;;;;;;4822245;29;20061;-67
2020/12/14 05:31:40;;;;;;;10.27;5.78;;;;;;;;;;4820113;29;19959;-67
2020/12/14 05:34:12;;;;;;;9.82;6.10;;;;;;;;;;4822738;29;20103;-67
2020/12/14 05:36:38;;;;;;;9.57;5.18;;;;;;;;;;4822075;29;20070;-67
2020/12/14 05:39:23;;;;;;;8.25;4.43;;;;;;;;;;4818901;29;20403;-67
2020/12/14 05:41:49;;;;;;;8.77;5.47;;;;;;;;;;4825814;29;20461;-67
2020/12/14 05:44:25;;;;;;;9.20;6.10;;;;;;;;;;4818959;29;20042;-67
2020/12/14 05:46:51;;;;;;;9.25;5.47;;;;;;;;;;4821483;29;20076;-67
2020/12/14 05:49:18;;;;;;;7.47;4.70;;;;;;;;;;4819201;29;20103;-67
2020/12/14 05:51:44;;;;;;;9.95;5.43;;;;;;;;;;4820434;29;20062;-68
2020/12/14 05:54:12;;;;;;;10.85;5.40;;;;;;;;;;4823679;29;20046;-68
2020/12/14 05:56:41;;;;;;;9.23;5.00;;;;;;;;;;4822532;29;20050;-68
2020/12/14 05:59:07;;;;;;;7.50;4.20;;;;;;;;;;4821379;29;20115;-67
2020/12/14 06:01:34;;;;;;;13.40;5.10;;;;;;;;;;4820353;29;20581;-68
2020/12/14 06:04:01;;;;;;;7.65;5.03;;;;;;;;;;4822968;29;20125;-67
2020/12/14 06:06:29;;;;;;;11.38;6.10;;;;;;;;;;4819364;29;20556;-68
2020/12/14 06:09:02;;;;;;;12.05;6.07;;;;;;;;;;4822209;29;20089;-68
2020/12/14 06:11:29;;;;;;;9.35;4.90;;;;;;;;;;4820644;29;20034;-67
2020/12/14 06:13:57;;;;;;;9.20;5.90;;;;;;;;;;4821110;29;20049;-67
2020/12/14 06:16:26;;;;;;;11.82;5.80;;;;;;;;;;4822278;29;20403;-67
2020/12/14 06:18:53;;;;;;;10.23;5.57;;;;;;;;;;4822903;29;20510;-68
2020/12/14 06:21:29;;;;;;;9.75;5.28;;;;;;;;;;4822846;29;20623;-68
2020/12/14 06:23:57;;;;;;;7.80;5.15;;;;;;;;;;4819202;29;20050;-67
2020/12/14 06:26:23;;;;;;;8.20;5.00;;;;;;;;;;4819529;29;20091;-68
2020/12/14 06:28:50;;;;;;;9.23;5.50;;;;;;;;;;4823096;29;20126;-68
2020/12/14 06:31:30;;;;;;;7.60;5.28;;;;;;;;;;4822145;29;20062;-68
2020/12/14 06:33:57;;;;;;;7.32;4.30;;;;;;;;;;4817113;29;20054;-68
2020/12/14 06:36:24;;;;;;;8.18;5.45;;;;;;;;;;4822320;29;20092;-67
2020/12/14 06:38:51;;;;;;;8.77;4.30;;;;;;;;;;4819848;29;20046;-67
2020/12/14 06:41:18;;;;;;;8.23;4.78;;;;;;;;;;4817568;29;20091;-68
2020/12/14 06:43:46;;;;;;;9.38;4.97;;;;;;;;;;4818409;29;20050;-67
2020/12/14 06:46:12;;;;;;;11.50;5.40;;;;;;;;;;4822028;29;20504;-68
2020/12/14 06:48:43;;;;;;;8.55;5.05;;;;;;;;;;4821848;29;20392;-68
2020/12/14 06:51:11;;;;;;;8.13;5.40;;;;;;;;;;4819973;29;20650;-68
2020/12/14 06:53:40;;;;;;;7.03;4.43;;;;;;;;;;4821610;29;20050;-68
2020/12/14 06:56:06;;;;;;;7.97;4.97;;;;;;;;;;4822120;29;20115;-68
2020/12/14 06:58:43;;;;;;;7.30;4.43;;;;;;;;;;4821581;29;20141;-67
2020/12/14 07:01:28;;;;;;;10.63;5.85;;;;;;;;;;4819284;29;20179;-68
2020/12/14 07:03:54;;;;;;;9.32;5.32;;;;;;;;;;4822546;29;20051;-67
2020/12/14 07:06:27;;;;;;;11.63;6.30;;;;;;;;;;4820924;29;20057;-68
2020/12/14 07:09:22;;;;;;;9.10;5.90;;;;;;;;;;4822067;29;20522;-68
2020/12/14 07:11:48;;;;;;;10.43;5.13;;;;;;;;;;4818981;29;20047;-68
2020/12/14 07:14:29;;;;;;;13.27;5.93;;;;;;;;;;4821048;29;20046;-68
2020/12/14 07:16:57;;;;;;;7.88;5.00;;;;;;;;;;4820599;29;20423;-68
2020/12/14 07:19:34;;;;;;;7.63;4.60;;;;;;;;;;4821422;29;20050;-68
2020/12/14 07:22:00;;;;;;;6.93;4.35;;;;;;;;;;4821336;29;20106;-68
2020/12/14 07:24:32;;;;;;;9.32;5.55;;;;;;;;;;4819790;29;20419;-68
2020/12/14 07:26:58;;;;;;;7.88;5.05;;;;;;;;;;4821742;29;20057;-68
2020/12/14 07:29:24;;;;;;;7.07;4.80;;;;;;;;;;4824141;29;20046;-68
2020/12/14 07:31:50;;;;;;;10.48;5.90;;;;;;;;;;4821341;29;20575;-68
2020/12/14 07:34:17;;;;;;;11.63;5.28;;;;;;;;;;4820015;29;20380;-67
2020/12/14 07:36:43;;;;;;;10.20;6.25;;;;;;;;;;4823095;29;20058;-68
2020/12/14 07:39:09;;;;;;;10.90;5.80;;;;;;;;;;4823602;29;20099;-67
2020/12/14 07:41:35;;;;;;;8.00;5.03;;;;;;;;;;4828249;29;20607;-68
2020/12/14 07:44:03;;;;;;;10.65;5.68;;;;;;;;;;4819554;29;20050;-68
2020/12/14 07:46:31;;;;;;;10.57;5.45;;;;;;;;;;4824166;29;20049;-68
2020/12/14 07:48:57;;;;;;;10.55;6.32;;;;;;;;;;4821776;29;20065;-67
2020/12/14 07:51:23;;;;;;;10.68;6.72;;;;;;;;;;4824638;29;20054;-68
2020/12/14 07:53:51;;;;;;;8.85;5.60;;;;;;;;;;4825796;29;20465;-67
2020/12/14 07:56:17;;;;;;;11.88;6.88;;;;;;;;;;4824435;29;20506;-68
2020/12/14 07:58:44;;;;;;;10.32;6.32;;;;;;;;;;4823842;29;20116;-68
2020/12/14 08:01:14;;;;;;;13.00;7.13;;;;;;;;;;4822372;29;20038;-68
2020/12/14 08:03:41;;;;;;;10.05;6.07;;;;;;;;;;4823980;29;20046;-68
2020/12/14 08:06:11;;;;;;;12.07;6.77;;;;;;;;;;4821369;29;20042;-68
2020/12/14 08:08:40;;;;;;;10.98;6.45;;;;;;;;;;4824664;29;20307;-68
2020/12/14 08:11:06;;;;;;;10.07;5.90;;;;;;;;;;4822249;29;20047;-68
2020/12/14 08:13:32;;;;;;;14.35;6.95;;;;;;;;;;4820892;29;20039;-68
2020/12/14 08:16:01;;;;;;;10.98;6.53;;;;;;;;;;4819890;29;20052;-68
2020/12/14 08:18:28;;;;;;;11.60;6.10;;;;;;;;;;4823312;29;20050;-68
2020/12/14 08:20:56;;;;;;;11.60;6.72;;;;;;;;;;4823172;29;20115;-67
2020/12/14 08:23:36;;;;;;;10.38;5.63;;;;;;;;;;4822268;29;20384;-68
2020/12/14 08:26:10;;;;;;;7.50;5.20;;;;;;;;;;4820846;29;20139;-68
2020/12/14 08:28:37;;;;;;;11.02;6.32;;;;;;;;;;4822602;29;20775;-68
2020/12/14 08:31:04;;;;;;;10.07;6.57;;;;;;;;;;4822495;29;20324;-68
2020/12/14 08:33:30;;;;;;;13.05;6.90;;;;;;;;;;4823617;29;20103;-68
2020/12/14 08:35:57;;;;;;;10.52;6.82;;;;;;;;;;4823771;29;20053;-68
2020/12/14 08:38:25;;;;;;;12.20;7.28;;;;;;;;;;4822196;29;20046;-68
2020/12/14 08:40:51;;;;;;;12.65;6.70;;;;;;;;;;4822609;29;20062;-68
2020/12/14 08:43:17;;;;;;;8.90;6.28;;;;;;;;;;4823105;29;20047;-68
2020/12/14 08:46:02;;;;;;;10.05;6.90;;;;;;;;;;4818483;29;20397;-68
2020/12/14 08:48:29;;;;;;;9.43;5.88;;;;;;;;;;4822339;29;20571;-68
2020/12/14 08:51:09;;;;;;;7.40;4.70;;;;;;;;;;4823503;29;20049;-68
2020/12/14 08:53:36;;;;;;;12.02;7.43;;;;;;;;;;4823054;29;20074;-68
2020/12/14 08:56:05;;;;;;;9.80;6.15;;;;;;;;;;4826423;29;20134;-68
2020/12/14 08:58:31;;;;;;;11.73;6.65;;;;;;;;;;4823046;29;20074;-68
2020/12/14 09:01:07;;;;;;;9.02;6.18;;;;;;;;;;4823425;29;20098;-67
2020/12/14 09:03:48;;;;;;;9.02;4.93;;;;;;;;;;4821910;29;20050;-68
2020/12/14 09:06:23;;;;;;;10.68;6.45;;;;;;;;;;4822041;29;20045;-68
2020/12/14 09:09:05;;;;;;;10.43;6.03;;;;;;;;;;4820593;29;20591;-68
2020/12/14 09:11:32;;;;;;;8.93;5.57;;;;;;;;;;4820161;29;20080;-68
2020/12/14 09:14:00;;;;;;;12.40;5.43;;;;;;;;;;4820706;29;20054;-68
2020/12/14 09:16:27;;;;;;;10.88;5.70;;;;;;;;;;4820875;29;20464;-68
2020/12/14 09:18:54;;;;;;;10.73;6.25;;;;;;;;;;4822864;29;20046;-68
2020/12/14 09:21:21;;;;;;;8.48;4.70;;;;;;;;;;4822236;29;20077;-68
2020/12/14 09:24:06;;;;;;;10.52;5.55;;;;;;;;;;4820662;29;20058;-68
2020/12/14 09:26:32;;;;;;;8.55;6.00;;;;;;;;;;4823261;29;20038;-68
2020/12/14 09:28:58;;;;;;;10.95;5.80;;;;;;;;;;4822751;29;20123;-68
2020/12/14 09:31:24;;;;;;;10.35;6.65;;;;;;;;;;4821878;29;20058;-67
2020/12/14 09:33:51;;;;;;;8.68;5.93;;;;;;;;;;4821765;29;20074;-68
2020/12/14 09:36:17;;;;;;;10.52;5.60;;;;;;;;;;4822606;29;20030;-68
2020/12/14 09:38:44;;;;;;;7.60;4.75;;;;;;;;;;4818740;29;20070;-68
2020/12/14 09:41:11;;;;;;;7.68;4.88;;;;;;;;;;4821607;29;20046;-68
2020/12/14 09:43:37;;;;;;;8.10;4.35;;;;;;;;;;4822271;29;20050;-68
2020/12/14 09:46:04;;;;;;;9.10;5.15;;;;;;;;;;4822319;29;20094;-67
2020/12/14 09:48:30;;;;;;;8.50;4.82;;;;;;;;;;4833962;29;20192;-68
2020/12/14 09:50:56;;;;;;;8.00;5.22;;;;;;;;;;4823221;29;20069;-68
2020/12/14 09:53:22;;;;;;;10.18;5.45;;;;;;;;;;4821241;29;20046;-68
2020/12/14 09:55:49;;;;;;;9.60;6.03;;;;;;;;;;4819870;29;20072;-68
2020/12/14 09:58:15;;;;;;;8.85;5.95;;;;;;;;;;4821349;29;20507;-68
2020/12/14 10:00:42;;;;;;;12.48;6.15;;;;;;;;;;4821368;29;21174;-68
2020/12/14 10:03:08;;;;;;;8.70;5.47;;;;;;;;;;4820111;29;20058;-68
2020/12/14 10:05:35;;;;;;;8.60;4.68;;;;;;;;;;4817718;29;20077;-68
2020/12/14 10:08:01;;;;;;;7.57;4.82;;;;;;;;;;4821302;29;20061;-68
2020/12/14 10:10:28;;;;;;;8.30;4.57;;;;;;;;;;4819892;29;20074;-68
2020/12/14 10:12:59;;;;;;;9.73;4.72;;;;;;;;;;4822234;29;20129;-68
2020/12/14 10:15:26;;;;;;;8.43;4.80;;;;;;;;;;4822217;29;20042;-68
2020/12/14 10:17:53;;;;;;;8.45;5.20;;;;;;;;;;4824557;29;20107;-68
2020/12/14 10:20:19;;;;;;;6.53;4.53;;;;;;;;;;4820871;29;20042;-68
2020/12/14 10:22:45;;;;;;;8.10;4.45;;;;;;;;;;4819793;29;20095;-68
2020/12/14 10:25:12;;;;;;;6.75;4.13;;;;;;;;;;4821487;29;20069;-68
2020/12/14 10:27:39;;;;;;;7.18;4.45;;;;;;;;;;4822304;29;20103;-68
2020/12/14 10:30:05;;;;;;;8.57;5.10;;;;;;;;;;4819021;29;20062;-68
2020/12/14 10:32:31;;;;;;;8.05;5.22;;;;;;;;;;4820795;29;20135;-68
2020/12/14 10:35:01;;;;;;;7.38;4.60;;;;;;;;;;4821285;29;20503;-68
2020/12/14 10:37:27;;;;;;;6.13;4.00;;;;;;;;;;4818397;29;20710;-68
2020/12/14 10:39:54;;;;;;;7.88;4.60;;;;;;;;;;4818112;29;20046;-68
2020/12/14 10:42:20;;;;;;;6.95;4.30;;;;;;;;;;4821298;29;20035;-67
2020/12/14 10:44:46;;;;;;;6.75;4.72;;;;;;;;;;4821997;29;20050;-68
2020/12/14 10:47:13;;;;;;;5.60;4.07;;;;;;;;;;4821511;29;20369;-67
2020/12/14 10:49:39;;;;;;;6.03;4.20;;;;;;;;;;4819546;29;20077;-68
2020/12/14 10:52:05;;;;;;;6.50;3.88;;;;;;;;;;4819241;29;20675;-67
2020/12/14 10:54:32;;;;;;;7.00;4.20;;;;;;;;;;4821158;29;20052;-68
2020/12/14 10:56:58;;;;;;;5.53;3.80;;;;;;;;;;4818561;29;20043;-67
2020/12/14 10:59:24;;;;;;;6.22;4.22;;;;;;;;;;4820304;29;20107;-68
2020/12/14 11:01:51;;;;;;;8.18;4.20;;;;;;;;;;4818258;29;20107;-67
2020/12/14 11:04:18;;;;;;;5.78;3.92;;;;;;;;;;4821427;29;20190;-67
2020/12/14 11:06:44;;;;;;;7.50;4.38;;;;;;;;;;4821339;29;20042;-68
2020/12/14 11:09:11;;;;;;;5.55;3.58;;;;;;;;;;4819900;29;20046;-68
2020/12/14 11:11:37;;;;;;;6.78;4.53;;;;;;;;;;4819934;29;20056;-68
2020/12/14 11:14:03;;;;;;;7.35;4.20;;;;;;;;;;4819856;29;20092;-67
2020/12/14 11:16:31;;;;;;;5.80;4.28;;;;;;;;;;4821759;29;20049;-68
2020/12/14 11:18:58;;;;;;;6.25;4.38;;;;;;;;;;4820959;29;20062;-68
2020/12/14 11:21:25;;;;;;;8.20;4.57;;;;;;;;;;4820161;29;20042;-68
2020/12/14 11:23:53;;;;;;;9.88;5.03;;;;;;;;;;4820556;29;20462;-68
2020/12/14 11:26:19;;;;;;;11.20;4.95;;;;;;;;;;4820095;29;20042;-67
2020/12/14 11:28:45;;;;;;;6.30;4.20;;;;;;;;;;4821834;29;20038;-67
2020/12/14 11:31:12;;;;;;;7.57;4.40;;;;;;;;;;4817794;29;20046;-68
2020/12/14 11:33:52;;;;;;;4.22;2.70;;;;;;;;;;4820714;29;20050;-68
2020/12/14 11:36:22;;;;;;;6.15;4.60;;;;;;;;;;4816041;29;20099;-68
2020/12/14 11:38:48;;;;;;;5.60;3.85;;;;;;;;;;4819851;29;20103;-68
2020/12/14 11:41:14;;;;;;;6.00;4.40;;;;;;;;;;4821098;29;20038;-68
2020/12/14 11:43:40;;;;;;;5.88;3.92;;;;;;;;;;4819948;29;20103;-68
2020/12/14 11:46:06;;;;;;;7.15;4.32;;;;;;;;;;4820026;29;20134;-68
2020/12/14 11:48:33;;;;;;;6.88;4.13;;;;;;;;;;4819230;29;20050;-68
2020/12/14 11:50:59;;;;;;;7.35;3.90;;;;;;;;;;4820358;29;20581;-68
2020/12/14 11:53:27;;;;;;;7.45;4.80;;;;;;;;;;4816240;29;20082;-68
2020/12/14 11:55:53;;;;;;;8.73;4.40;;;;;;;;;;4820747;29;20046;-68
2020/12/14 11:58:19;;;;;;;7.22;5.03;;;;;;;;;;4820064;29;20463;-68
2020/12/14 12:00:45;;;;;;;5.25;3.42;;;;;;;;;;4819517;29;20511;-68
2020/12/14 12:03:12;;;;;;;6.03;3.03;;;;;;;;;;4820433;29;20074;-68
2020/12/14 12:05:39;;;;;;;7.95;4.20;;;;;;;;;;4820807;29;20050;-68
2020/12/14 12:08:05;;;;;;;7.15;4.25;;;;;;;;;;4820380;29;20042;-68
2020/12/14 12:10:31;;;;;;;6.82;4.07;;;;;;;;;;4820052;29;20046;-68
2020/12/14 12:12:57;;;;;;;7.45;3.80;;;;;;;;;;4820846;29;20046;-68
2020/12/14 12:15:24;;;;;;;7.35;4.40;;;;;;;;;;4819611;29;20042;-68
2020/12/14 12:17:50;;;;;;;7.75;3.60;;;;;;;;;;4819407;29;20054;-68
2020/12/14 12:20:16;;;;;;;7.57;3.90;;;;;;;;;;4819056;29;20511;-68
2020/12/14 12:22:42;;;;;;;5.32;3.60;;;;;;;;;;4820944;29;20054;-68
2020/12/14 12:25:09;;;;;;;6.22;2.53;;;;;;;;;;4819121;29;20042;-68
2020/12/14 12:27:35;;;;;;;5.72;3.70;;;;;;;;;;4823409;29;20046;-68
2020/12/14 12:30:01;;;;;;;5.75;3.75;;;;;;;;;;4821953;29;20049;-68
2020/12/14 12:32:27;;;;;;;5.70;3.83;;;;;;;;;;4822263;29;20046;-68
2020/12/14 12:34:54;;;;;;;6.13;3.65;;;;;;;;;;4823058;29;20103;-67
2020/12/14 12:37:20;;;;;;;5.68;3.80;;;;;;;;;;4821039;29;20042;-67
2020/12/14 12:39:47;;;;;;;5.88;3.97;;;;;;;;;;4819804;29;20046;-67
2020/12/14 12:42:13;;;;;;;6.70;3.88;;;;;;;;;;4823177;29;20049;-68
2020/12/14 12:44:39;;;;;;;6.28;3.22;;;;;;;;;;4818913;29;20055;-67
2020/12/14 12:47:07;;;;;;;6.15;3.47;;;;;;;;;;4825002;29;20050;-68
2020/12/14 12:49:34;;;;;;;5.63;3.27;;;;;;;;;;4823260;29;20054;-68
2020/12/14 12:52:01;;;;;;;6.38;3.75;;;;;;;;;;4823149;29;20323;-68
2020/12/14 12:54:27;;;;;;;5.18;3.53;;;;;;;;;;4822734;29;20054;-68
2020/12/14 12:56:55;;;;;;;5.03;3.30;;;;;;;;;;4821744;29;20049;-67
2020/12/14 12:59:22;;;;;;;5.30;2.88;;;;;;;;;;4822683;29;20047;-68
2020/12/14 13:01:54;;;;;;;5.07;3.43;;;;;;;;;;4823180;29;20080;-68
2020/12/14 13:04:20;;;;;;;7.82;3.67;;;;;;;;;;4821521;29;20059;-68
2020/12/14 13:06:46;;;;;;;8.57;3.78;;;;;;;;;;4821606;29;20065;-67
2020/12/14 13:09:12;;;;;;;6.07;4.20;;;;;;;;;;4822022;29;20046;-67
2020/12/14 13:11:40;;;;;;;4.95;3.47;;;;;;;;;;4823126;29;20119;-68
2020/12/14 13:14:11;;;;;;;4.65;2.92;;;;;;;;;;4821435;29;20114;-68
2020/12/14 13:16:39;;;;;;;7.43;3.00;;;;;;;;;;4821932;29;20120;-68
2020/12/14 13:19:08;;;;;;;5.43;3.10;;;;;;;;;;4820134;29;20093;-68
2020/12/14 13:21:35;;;;;;;5.13;3.75;;;;;;;;;;4820579;29;20133;-68
2020/12/14 13:24:02;;;;;;;4.28;2.65;;;;;;;;;;4822708;29;20121;-68
2020/12/14 13:26:28;;;;;;;6.53;3.50;;;;;;;;;;4824993;29;20054;-68
2020/12/14 13:28:55;;;;;;;5.45;3.65;;;;;;;;;;4820735;29;20050;-67
2020/12/14 13:31:23;;;;;;;3.90;2.75;;;;;;;;;;4820913;29;20144;-68
2020/12/14 13:33:50;;;;;;;6.70;3.80;;;;;;;;;;4820943;29;20047;-67
2020/12/14 13:36:17;;;;;;;4.40;2.85;;;;;;;;;;4819850;29;20057;-67
2020/12/14 13:38:44;;;;;;;6.35;3.70;;;;;;;;;;4817333;29;20706;-68
2020/12/14 13:41:10;;;;;;;4.25;2.75;;;;;;;;;;4821052;29;20129;-68
2020/12/14 13:43:36;;;;;;;6.35;3.42;;;;;;;;;;4836713;29;20239;-68
2020/12/14 13:46:04;;;;;;;6.05;3.67;;;;;;;;;;4821260;29;20050;-68
2020/12/14 13:48:30;;;;;;;9.00;4.35;;;;;;;;;;4819411;29;20042;-68
2020/12/14 13:50:57;;;;;;;6.80;3.78;;;;;;;;;;4821415;29;20050;-68
2020/12/14 13:53:24;;;;;;;6.22;4.18;;;;;;;;;;4821763;29;20129;-68
2020/12/14 13:55:51;;;;;;;7.65;4.18;;;;;;;;;;4822088;29;20046;-68
2020/12/14 13:58:17;;;;;;;6.80;4.15;;;;;;;;;;4822207;29;20066;-68
2020/12/14 14:00:43;;;;;;;4.95;2.78;;;;;;;;;;4816701;29;20042;-68
2020/12/14 14:03:10;;;;;;;4.93;3.78;;;;;;;;;;4820866;29;20074;-67
2020/12/14 14:05:37;;;;;;;5.00;2.97;;;;;;;;;;4820945;29;20050;-68
2020/12/14 14:08:03;;;;;;;7.30;3.65;;;;;;;;;;4821602;29;21024;-68
2020/12/14 14:10:30;;;;;;;6.65;3.75;;;;;;;;;;4821880;29;20107;-68
2020/12/14 14:12:56;;;;;;;4.93;2.85;;;;;;;;;;4817894;29;20045;-68
2020/12/14 14:15:22;;;;;;;4.80;2.83;;;;;;;;;;4820921;29;20050;-68
2020/12/14 14:17:49;;;;;;;4.00;2.40;;;;;;;;;;4822355;29;20054;-68
2020/12/14 14:20:15;;;;;;;5.63;2.58;;;;;;;;;;4821107;29;20054;-68
2020/12/14 14:22:41;;;;;;;6.18;4.05;;;;;;;;;;4820341;29;20062;-68
2020/12/14 14:25:08;;;;;;;6.40;3.72;;;;;;;;;;4821671;29;20105;-68
2020/12/14 14:27:34;;;;;;;8.07;4.00;;;;;;;;;;4819396;29;20510;-68
2020/12/14 14:30:00;;;;;;;4.40;2.75;;;;;;;;;;4821848;29;20046;-68
2020/12/14 14:32:27;;;;;;;6.95;3.10;;;;;;;;;;4821528;29;20098;-68
2020/12/14 14:34:54;;;;;;;7.40;3.85;;;;;;;;;;4821726;29;20045;-68
2020/12/14 14:37:22;;;;;;;5.45;3.30;;;;;;;;;;4820504;29;20039;-68
2020/12/14 14:39:48;;;;;;;5.30;3.00;;;;;;;;;;4819957;29;20571;-68
2020/12/14 14:42:18;;;;;;;5.05;3.30;;;;;;;;;;4821141;29;20180;-68